sensor_id;sensor_type;location;lat;lon;timestamp;P1;durP1;ratioP1;P2;durP2;ratioP2
13927;SDS011;7036;50.834;4.718;2023-05-07T00:02:23;3.78;;;1.50;;
13927;SDS011;7036;50.834;4.718;2023-05-07T00:04:50;2.85;;;1.67;;
13927;SDS011;7036;50.834;4.718;2023-05-07T00:07:18;2.15;;;1.60;;
13927;SDS011;7036;50.834;4.718;2023-05-07T00:09:45;1.52;;;1.42;;
13927;SDS011;7036;50.834;4.718;2023-05-07T00:12:13;1.92;;;1.27;;
13927;SDS011;7036;50.834;4.718;2023-05-07T00:14:41;1.80;;;1.58;;
13927;SDS011;7036;50.834;4.718;2023-05-07T00:17:09;2.58;;;1.38;;
13927;SDS011;7036;50.834;4.718;2023-05-07T00:19:36;1.80;;;1.40;;
13927;SDS011;7036;50.834;4.718;2023-05-07T00:22:03;2.13;;;1.45;;
13927;SDS011;7036;50.834;4.718;2023-05-07T00:24:31;3.10;;;1.45;;
13927;SDS011;7036;50.834;4.718;2023-05-07T00:27:00;2.03;;;1.50;;
13927;SDS011;7036;50.834;4.718;2023-05-07T00:29:28;2.83;;;1.50;;
13927;SDS011;7036;50.834;4.718;2023-05-07T00:31:56;3.80;;;1.85;;
13927;SDS011;7036;50.834;4.718;2023-05-07T00:34:23;2.28;;;1.23;;
13927;SDS011;7036;50.834;4.718;2023-05-07T00:36:50;1.67;;;1.38;;
13927;SDS011;7036;50.834;4.718;2023-05-07T00:39:18;2.22;;;1.30;;
13927;SDS011;7036;50.834;4.718;2023-05-07T00:41:46;2.88;;;1.45;;
13927;SDS011;7036;50.834;4.718;2023-05-07T00:44:15;2.63;;;1.55;;
13927;SDS011;7036;50.834;4.718;2023-05-07T00:46:42;1.83;;;1.27;;
13927;SDS011;7036;50.834;4.718;2023-05-07T00:49:10;2.97;;;1.42;;
13927;SDS011;7036;50.834;4.718;2023-05-07T00:51:37;1.83;;;1.30;;
13927;SDS011;7036;50.834;4.718;2023-05-07T00:54:05;1.33;;;1.23;;
13927;SDS011;7036;50.834;4.718;2023-05-07T00:56:32;1.67;;;1.55;;
13927;SDS011;7036;50.834;4.718;2023-05-07T00:59:03;3.15;;;1.45;;
13927;SDS011;7036;50.834;4.718;2023-05-07T01:01:28;2.03;;;1.50;;
13927;SDS011;7036;50.834;4.718;2023-05-07T01:03:56;2.65;;;1.55;;
13927;SDS011;7036;50.834;4.718;2023-05-07T01:06:23;3.27;;;1.53;;
13927;SDS011;7036;50.834;4.718;2023-05-07T01:08:50;2.63;;;1.35;;
13927;SDS011;7036;50.834;4.718;2023-05-07T01:11:18;2.70;;;1.23;;
13927;SDS011;7036;50.834;4.718;2023-05-07T01:13:46;1.75;;;1.27;;
13927;SDS011;7036;50.834;4.718;2023-05-07T01:16:13;2.35;;;1.60;;
13927;SDS011;7036;50.834;4.718;2023-05-07T01:18:41;3.53;;;1.45;;
13927;SDS011;7036;50.834;4.718;2023-05-07T01:21:08;1.90;;;1.50;;
13927;SDS011;7036;50.834;4.718;2023-05-07T01:23:36;2.58;;;1.35;;
13927;SDS011;7036;50.834;4.718;2023-05-07T01:26:03;2.50;;;1.38;;
13927;SDS011;7036;50.834;4.718;2023-05-07T01:28:31;1.38;;;1.02;;
13927;SDS011;7036;50.834;4.718;2023-05-07T01:31:00;2.22;;;1.48;;
13927;SDS011;7036;50.834;4.718;2023-05-07T01:33:25;2.20;;;1.63;;
13927;SDS011;7036;50.834;4.718;2023-05-07T01:35:53;1.73;;;1.52;;
13927;SDS011;7036;50.834;4.718;2023-05-07T01:38:21;2.88;;;1.33;;
13927;SDS011;7036;50.834;4.718;2023-05-07T01:40:49;1.77;;;1.52;;
13927;SDS011;7036;50.834;4.718;2023-05-07T01:43:16;2.30;;;1.25;;
13927;SDS011;7036;50.834;4.718;2023-05-07T01:45:44;1.98;;;1.40;;
13927;SDS011;7036;50.834;4.718;2023-05-07T01:48:11;1.80;;;1.70;;
13927;SDS011;7036;50.834;4.718;2023-05-07T01:50:39;2.80;;;1.50;;
13927;SDS011;7036;50.834;4.718;2023-05-07T01:53:06;1.35;;;1.23;;
13927;SDS011;7036;50.834;4.718;2023-05-07T01:55:34;1.75;;;1.55;;
13927;SDS011;7036;50.834;4.718;2023-05-07T01:58:02;2.63;;;1.17;;
13927;SDS011;7036;50.834;4.718;2023-05-07T02:00:29;1.52;;;1.40;;
13927;SDS011;7036;50.834;4.718;2023-05-07T02:02:56;1.40;;;1.30;;
13927;SDS011;7036;50.834;4.718;2023-05-07T02:05:24;2.28;;;1.58;;
13927;SDS011;7036;50.834;4.718;2023-05-07T02:07:51;1.73;;;1.50;;
13927;SDS011;7036;50.834;4.718;2023-05-07T02:10:18;2.08;;;1.48;;
13927;SDS011;7036;50.834;4.718;2023-05-07T02:12:46;1.77;;;1.60;;
13927;SDS011;7036;50.834;4.718;2023-05-07T02:15:13;2.28;;;1.77;;
13927;SDS011;7036;50.834;4.718;2023-05-07T02:18:03;1.50;;;1.40;;
13927;SDS011;7036;50.834;4.718;2023-05-07T02:20:26;4.33;;;1.70;;
13927;SDS011;7036;50.834;4.718;2023-05-07T02:22:53;1.73;;;1.48;;
13927;SDS011;7036;50.834;4.718;2023-05-07T02:25:20;2.72;;;1.60;;
13927;SDS011;7036;50.834;4.718;2023-05-07T02:27:47;1.55;;;1.40;;
13927;SDS011;7036;50.834;4.718;2023-05-07T02:30:16;2.85;;;1.65;;
13927;SDS011;7036;50.834;4.718;2023-05-07T02:32:43;1.58;;;1.48;;
13927;SDS011;7036;50.834;4.718;2023-05-07T02:35:11;1.83;;;1.67;;
13927;SDS011;7036;50.834;4.718;2023-05-07T02:37:39;1.58;;;1.42;;
13927;SDS011;7036;50.834;4.718;2023-05-07T02:40:07;1.98;;;1.30;;
13927;SDS011;7036;50.834;4.718;2023-05-07T02:42:34;1.50;;;1.20;;
13927;SDS011;7036;50.834;4.718;2023-05-07T02:45:01;1.40;;;1.30;;
13927;SDS011;7036;50.834;4.718;2023-05-07T02:47:28;1.70;;;1.60;;
13927;SDS011;7036;50.834;4.718;2023-05-07T02:49:56;1.70;;;1.60;;
13927;SDS011;7036;50.834;4.718;2023-05-07T02:52:23;1.60;;;1.38;;
13927;SDS011;7036;50.834;4.718;2023-05-07T02:54:51;2.72;;;1.38;;
13927;SDS011;7036;50.834;4.718;2023-05-07T02:57:19;2.45;;;1.40;;
13927;SDS011;7036;50.834;4.718;2023-05-07T02:59:46;2.35;;;1.77;;
13927;SDS011;7036;50.834;4.718;2023-05-07T03:02:14;2.13;;;1.52;;
13927;SDS011;7036;50.834;4.718;2023-05-07T03:04:41;2.05;;;1.60;;
13927;SDS011;7036;50.834;4.718;2023-05-07T03:07:08;2.13;;;1.70;;
13927;SDS011;7036;50.834;4.718;2023-05-07T03:09:36;1.60;;;1.50;;
13927;SDS011;7036;50.834;4.718;2023-05-07T03:12:04;1.85;;;1.50;;
13927;SDS011;7036;50.834;4.718;2023-05-07T03:14:32;2.35;;;1.70;;
13927;SDS011;7036;50.834;4.718;2023-05-07T03:17:00;1.75;;;1.50;;
13927;SDS011;7036;50.834;4.718;2023-05-07T03:19:27;1.40;;;1.30;;
13927;SDS011;7036;50.834;4.718;2023-05-07T03:21:55;1.58;;;1.48;;
13927;SDS011;7036;50.834;4.718;2023-05-07T03:24:22;1.90;;;1.70;;
13927;SDS011;7036;50.834;4.718;2023-05-07T03:26:50;2.40;;;2.13;;
13927;SDS011;7036;50.834;4.718;2023-05-07T03:29:18;1.67;;;1.58;;
13927;SDS011;7036;50.834;4.718;2023-05-07T03:31:46;1.40;;;1.30;;
13927;SDS011;7036;50.834;4.718;2023-05-07T03:34:13;2.40;;;1.63;;
13927;SDS011;7036;50.834;4.718;2023-05-07T03:36:40;1.83;;;1.73;;
13927;SDS011;7036;50.834;4.718;2023-05-07T03:39:08;1.67;;;1.58;;
13927;SDS011;7036;50.834;4.718;2023-05-07T03:41:36;3.15;;;1.58;;
13927;SDS011;7036;50.834;4.718;2023-05-07T03:44:04;1.90;;;1.65;;
13927;SDS011;7036;50.834;4.718;2023-05-07T03:46:33;2.53;;;1.60;;
13927;SDS011;7036;50.834;4.718;2023-05-07T03:49:00;2.00;;;1.80;;
13927;SDS011;7036;50.834;4.718;2023-05-07T03:51:28;1.67;;;1.58;;
13927;SDS011;7036;50.834;4.718;2023-05-07T03:53:55;1.75;;;1.58;;
13927;SDS011;7036;50.834;4.718;2023-05-07T03:56:23;2.38;;;1.80;;
13927;SDS011;7036;50.834;4.718;2023-05-07T03:58:51;3.13;;;1.90;;
13927;SDS011;7036;50.834;4.718;2023-05-07T04:01:18;2.70;;;1.60;;
13927;SDS011;7036;50.834;4.718;2023-05-07T04:03:46;1.83;;;1.70;;
13927;SDS011;7036;50.834;4.718;2023-05-07T04:06:18;3.30;;;1.80;;
13927;SDS011;7036;50.834;4.718;2023-05-07T04:08:44;2.07;;;1.80;;
13927;SDS011;7036;50.834;4.718;2023-05-07T04:11:12;2.30;;;1.70;;
13927;SDS011;7036;50.834;4.718;2023-05-07T04:13:40;3.42;;;2.30;;
13927;SDS011;7036;50.834;4.718;2023-05-07T04:16:08;1.67;;;1.58;;
13927;SDS011;7036;50.834;4.718;2023-05-07T04:18:36;2.10;;;1.90;;
13927;SDS011;7036;50.834;4.718;2023-05-07T04:21:04;1.60;;;1.50;;
13927;SDS011;7036;50.834;4.718;2023-05-07T04:23:32;2.28;;;1.83;;
13927;SDS011;7036;50.834;4.718;2023-05-07T04:26:00;2.00;;;1.80;;
13927;SDS011;7036;50.834;4.718;2023-05-07T04:28:27;2.30;;;1.63;;
13927;SDS011;7036;50.834;4.718;2023-05-07T04:30:55;2.30;;;1.70;;
13927;SDS011;7036;50.834;4.718;2023-05-07T04:33:23;2.15;;;1.50;;
13927;SDS011;7036;50.834;4.718;2023-05-07T04:35:50;2.13;;;1.55;;
13927;SDS011;7036;50.834;4.718;2023-05-07T04:38:17;2.08;;;1.60;;
13927;SDS011;7036;50.834;4.718;2023-05-07T04:40:45;1.73;;;1.63;;
13927;SDS011;7036;50.834;4.718;2023-05-07T04:43:12;3.33;;;1.67;;
13927;SDS011;7036;50.834;4.718;2023-05-07T04:45:40;1.92;;;1.58;;
13927;SDS011;7036;50.834;4.718;2023-05-07T04:48:09;2.45;;;1.65;;
13927;SDS011;7036;50.834;4.718;2023-05-07T04:50:35;1.60;;;1.50;;
13927;SDS011;7036;50.834;4.718;2023-05-07T04:53:03;1.77;;;1.45;;
13927;SDS011;7036;50.834;4.718;2023-05-07T04:55:32;1.88;;;1.48;;
13927;SDS011;7036;50.834;4.718;2023-05-07T04:57:59;2.53;;;1.67;;
13927;SDS011;7036;50.834;4.718;2023-05-07T05:00:28;2.03;;;1.70;;
13927;SDS011;7036;50.834;4.718;2023-05-07T05:02:55;1.90;;;1.70;;
13927;SDS011;7036;50.834;4.718;2023-05-07T05:05:23;1.98;;;1.65;;
13927;SDS011;7036;50.834;4.718;2023-05-07T05:07:50;2.03;;;1.85;;
13927;SDS011;7036;50.834;4.718;2023-05-07T05:10:18;2.28;;;1.83;;
13927;SDS011;7036;50.834;4.718;2023-05-07T05:12:46;2.35;;;1.75;;
13927;SDS011;7036;50.834;4.718;2023-05-07T05:15:14;1.85;;;1.50;;
13927;SDS011;7036;50.834;4.718;2023-05-07T05:17:42;2.33;;;1.70;;
13927;SDS011;7036;50.834;4.718;2023-05-07T05:20:10;1.65;;;1.55;;
13927;SDS011;7036;50.834;4.718;2023-05-07T05:22:38;3.70;;;1.55;;
13927;SDS011;7036;50.834;4.718;2023-05-07T05:25:06;1.88;;;1.67;;
13927;SDS011;7036;50.834;4.718;2023-05-07T05:27:33;2.75;;;1.83;;
13927;SDS011;7036;50.834;4.718;2023-05-07T05:30:01;1.70;;;1.50;;
13927;SDS011;7036;50.834;4.718;2023-05-07T05:32:29;1.77;;;1.60;;
13927;SDS011;7036;50.834;4.718;2023-05-07T05:34:57;2.38;;;1.40;;
13927;SDS011;7036;50.834;4.718;2023-05-07T05:37:25;2.83;;;1.48;;
13927;SDS011;7036;50.834;4.718;2023-05-07T05:39:53;2.00;;;1.80;;
13927;SDS011;7036;50.834;4.718;2023-05-07T05:42:21;3.33;;;1.77;;
13927;SDS011;7036;50.834;4.718;2023-05-07T05:44:49;1.80;;;1.70;;
13927;SDS011;7036;50.834;4.718;2023-05-07T05:47:16;1.52;;;1.42;;
13927;SDS011;7036;50.834;4.718;2023-05-07T05:49:44;2.30;;;1.92;;
13927;SDS011;7036;50.834;4.718;2023-05-07T05:52:12;1.77;;;1.65;;
13927;SDS011;7036;50.834;4.718;2023-05-07T05:54:39;2.08;;;1.70;;
13927;SDS011;7036;50.834;4.718;2023-05-07T05:57:06;3.05;;;1.70;;
13927;SDS011;7036;50.834;4.718;2023-05-07T05:59:33;2.22;;;1.88;;
13927;SDS011;7036;50.834;4.718;2023-05-07T06:02:01;4.00;;;1.70;;
13927;SDS011;7036;50.834;4.718;2023-05-07T06:04:29;3.80;;;1.85;;
13927;SDS011;7036;50.834;4.718;2023-05-07T06:06:57;9.05;;;2.58;;
13927;SDS011;7036;50.834;4.718;2023-05-07T06:09:25;9.98;;;2.47;;
13927;SDS011;7036;50.834;4.718;2023-05-07T06:11:52;1.75;;;1.65;;
13927;SDS011;7036;50.834;4.718;2023-05-07T06:14:20;3.03;;;1.95;;
13927;SDS011;7036;50.834;4.718;2023-05-07T06:16:47;2.13;;;1.88;;
13927;SDS011;7036;50.834;4.718;2023-05-07T06:19:15;4.18;;;1.75;;
13927;SDS011;7036;50.834;4.718;2023-05-07T06:21:43;5.57;;;2.03;;
13927;SDS011;7036;50.834;4.718;2023-05-07T06:24:11;5.65;;;2.05;;
13927;SDS011;7036;50.834;4.718;2023-05-07T06:26:38;2.35;;;1.80;;
13927;SDS011;7036;50.834;4.718;2023-05-07T06:29:05;1.67;;;1.58;;
13927;SDS011;7036;50.834;4.718;2023-05-07T06:31:33;4.18;;;2.00;;
13927;SDS011;7036;50.834;4.718;2023-05-07T06:34:01;3.50;;;1.70;;
13927;SDS011;7036;50.834;4.718;2023-05-07T06:36:28;2.90;;;1.98;;
13927;SDS011;7036;50.834;4.718;2023-05-07T06:38:56;3.78;;;1.70;;
13927;SDS011;7036;50.834;4.718;2023-05-07T06:41:23;3.78;;;2.25;;
13927;SDS011;7036;50.834;4.718;2023-05-07T06:43:51;2.85;;;1.55;;
13927;SDS011;7036;50.834;4.718;2023-05-07T06:46:18;6.95;;;2.35;;
13927;SDS011;7036;50.834;4.718;2023-05-07T06:48:46;4.00;;;2.00;;
13927;SDS011;7036;50.834;4.718;2023-05-07T06:51:14;3.00;;;2.22;;
13927;SDS011;7036;50.834;4.718;2023-05-07T06:53:42;4.28;;;2.17;;
13927;SDS011;7036;50.834;4.718;2023-05-07T06:56:10;3.75;;;1.83;;
13927;SDS011;7036;50.834;4.718;2023-05-07T06:58:37;5.30;;;2.13;;
13927;SDS011;7036;50.834;4.718;2023-05-07T07:01:05;4.55;;;2.38;;
13927;SDS011;7036;50.834;4.718;2023-05-07T07:03:32;3.63;;;2.00;;
13927;SDS011;7036;50.834;4.718;2023-05-07T07:05:59;5.00;;;1.95;;
13927;SDS011;7036;50.834;4.718;2023-05-07T07:08:27;3.03;;;2.00;;
13927;SDS011;7036;50.834;4.718;2023-05-07T07:10:55;3.28;;;2.10;;
13927;SDS011;7036;50.834;4.718;2023-05-07T07:13:22;3.17;;;2.20;;
13927;SDS011;7036;50.834;4.718;2023-05-07T07:15:51;4.68;;;2.13;;
13927;SDS011;7036;50.834;4.718;2023-05-07T07:18:18;3.97;;;2.00;;
13927;SDS011;7036;50.834;4.718;2023-05-07T07:20:45;2.25;;;1.83;;
13927;SDS011;7036;50.834;4.718;2023-05-07T07:23:13;3.78;;;2.10;;
13927;SDS011;7036;50.834;4.718;2023-05-07T07:25:42;3.45;;;2.10;;
13927;SDS011;7036;50.834;4.718;2023-05-07T07:28:09;6.43;;;2.07;;
13927;SDS011;7036;50.834;4.718;2023-05-07T07:30:36;6.03;;;1.98;;
13927;SDS011;7036;50.834;4.718;2023-05-07T07:33:03;3.13;;;2.20;;
13927;SDS011;7036;50.834;4.718;2023-05-07T07:35:33;6.43;;;1.88;;
13927;SDS011;7036;50.834;4.718;2023-05-07T07:37:58;2.42;;;1.83;;
13927;SDS011;7036;50.834;4.718;2023-05-07T07:40:25;6.57;;;2.15;;
13927;SDS011;7036;50.834;4.718;2023-05-07T07:42:52;3.03;;;2.22;;
13927;SDS011;7036;50.834;4.718;2023-05-07T07:45:20;5.18;;;2.30;;
13927;SDS011;7036;50.834;4.718;2023-05-07T07:47:47;3.33;;;2.10;;
13927;SDS011;7036;50.834;4.718;2023-05-07T07:50:15;3.28;;;2.03;;
13927;SDS011;7036;50.834;4.718;2023-05-07T07:52:43;3.55;;;2.17;;
13927;SDS011;7036;50.834;4.718;2023-05-07T07:55:10;4.95;;;2.22;;
13927;SDS011;7036;50.834;4.718;2023-05-07T07:57:38;2.85;;;2.20;;
13927;SDS011;7036;50.834;4.718;2023-05-07T08:00:06;5.32;;;1.90;;
13927;SDS011;7036;50.834;4.718;2023-05-07T08:02:33;4.85;;;1.95;;
13927;SDS011;7036;50.834;4.718;2023-05-07T08:05:02;3.42;;;2.30;;
13927;SDS011;7036;50.834;4.718;2023-05-07T08:07:29;8.73;;;2.10;;
13927;SDS011;7036;50.834;4.718;2023-05-07T08:09:56;3.95;;;2.35;;
13927;SDS011;7036;50.834;4.718;2023-05-07T08:12:24;7.38;;;2.42;;
13927;SDS011;7036;50.834;4.718;2023-05-07T08:14:53;7.88;;;2.90;;
13927;SDS011;7036;50.834;4.718;2023-05-07T08:17:19;9.37;;;2.50;;
13927;SDS011;7036;50.834;4.718;2023-05-07T08:19:46;3.92;;;1.95;;
13927;SDS011;7036;50.834;4.718;2023-05-07T08:22:14;6.65;;;2.70;;
13927;SDS011;7036;50.834;4.718;2023-05-07T08:24:41;5.32;;;2.00;;
13927;SDS011;7036;50.834;4.718;2023-05-07T08:27:09;6.10;;;1.88;;
13927;SDS011;7036;50.834;4.718;2023-05-07T08:29:37;3.42;;;2.08;;
13927;SDS011;7036;50.834;4.718;2023-05-07T08:32:05;3.92;;;1.88;;
13927;SDS011;7036;50.834;4.718;2023-05-07T08:34:32;5.22;;;2.38;;
13927;SDS011;7036;50.834;4.718;2023-05-07T08:36:59;4.93;;;2.30;;
13927;SDS011;7036;50.834;4.718;2023-05-07T08:39:27;4.85;;;2.17;;
13927;SDS011;7036;50.834;4.718;2023-05-07T08:41:55;3.63;;;2.20;;
13927;SDS011;7036;50.834;4.718;2023-05-07T08:44:23;3.50;;;1.77;;
13927;SDS011;7036;50.834;4.718;2023-05-07T08:46:51;5.13;;;2.00;;
13927;SDS011;7036;50.834;4.718;2023-05-07T08:49:19;7.95;;;2.60;;
13927;SDS011;7036;50.834;4.718;2023-05-07T08:51:47;4.60;;;2.20;;
13927;SDS011;7036;50.834;4.718;2023-05-07T08:54:18;4.15;;;2.42;;
13927;SDS011;7036;50.834;4.718;2023-05-07T08:56:44;2.70;;;1.60;;
13927;SDS011;7036;50.834;4.718;2023-05-07T08:59:12;2.95;;;1.70;;
13927;SDS011;7036;50.834;4.718;2023-05-07T09:01:40;3.40;;;1.83;;
13927;SDS011;7036;50.834;4.718;2023-05-07T09:04:07;7.32;;;2.15;;
13927;SDS011;7036;50.834;4.718;2023-05-07T09:06:35;2.63;;;1.67;;
13927;SDS011;7036;50.834;4.718;2023-05-07T09:09:03;4.50;;;1.88;;
13927;SDS011;7036;50.834;4.718;2023-05-07T09:11:31;3.35;;;1.98;;
13927;SDS011;7036;50.834;4.718;2023-05-07T09:13:59;4.60;;;2.00;;
13927;SDS011;7036;50.834;4.718;2023-05-07T09:16:26;3.42;;;1.75;;
13927;SDS011;7036;50.834;4.718;2023-05-07T09:18:54;6.07;;;2.00;;
13927;SDS011;7036;50.834;4.718;2023-05-07T09:21:21;6.13;;;2.00;;
13927;SDS011;7036;50.834;4.718;2023-05-07T09:23:50;5.15;;;1.80;;
13927;SDS011;7036;50.834;4.718;2023-05-07T09:26:15;5.22;;;1.80;;
13927;SDS011;7036;50.834;4.718;2023-05-07T09:28:43;4.25;;;2.25;;
13927;SDS011;7036;50.834;4.718;2023-05-07T09:31:10;2.63;;;1.83;;
13927;SDS011;7036;50.834;4.718;2023-05-07T09:33:37;4.38;;;1.48;;
13927;SDS011;7036;50.834;4.718;2023-05-07T09:36:05;7.40;;;1.95;;
13927;SDS011;7036;50.834;4.718;2023-05-07T09:38:32;3.47;;;1.65;;
13927;SDS011;7036;50.834;4.718;2023-05-07T09:41:06;4.35;;;2.08;;
13927;SDS011;7036;50.834;4.718;2023-05-07T09:43:36;7.60;;;1.97;;
13927;SDS011;7036;50.834;4.718;2023-05-07T09:46:03;5.93;;;2.00;;
13927;SDS011;7036;50.834;4.718;2023-05-07T09:48:29;6.63;;;2.13;;
13927;SDS011;7036;50.834;4.718;2023-05-07T09:50:58;3.60;;;1.75;;
13927;SDS011;7036;50.834;4.718;2023-05-07T09:53:25;3.83;;;1.83;;
13927;SDS011;7036;50.834;4.718;2023-05-07T09:55:53;2.97;;;1.63;;
13927;SDS011;7036;50.834;4.718;2023-05-07T09:58:21;4.10;;;1.70;;
13927;SDS011;7036;50.834;4.718;2023-05-07T10:00:51;8.90;;;1.90;;
13927;SDS011;7036;50.834;4.718;2023-05-07T10:03:17;3.03;;;1.97;;
13927;SDS011;7036;50.834;4.718;2023-05-07T10:05:46;3.80;;;1.60;;
13927;SDS011;7036;50.834;4.718;2023-05-07T10:08:13;1.85;;;1.60;;
13927;SDS011;7036;50.834;4.718;2023-05-07T10:10:41;3.03;;;1.58;;
13927;SDS011;7036;50.834;4.718;2023-05-07T10:13:08;4.93;;;1.87;;
13927;SDS011;7036;50.834;4.718;2023-05-07T10:15:35;2.75;;;1.83;;
13927;SDS011;7036;50.834;4.718;2023-05-07T10:18:03;3.15;;;1.65;;
13927;SDS011;7036;50.834;4.718;2023-05-07T10:20:32;1.70;;;1.58;;
13927;SDS011;7036;50.834;4.718;2023-05-07T10:23:00;5.95;;;1.83;;
13927;SDS011;7036;50.834;4.718;2023-05-07T10:25:30;3.83;;;1.43;;
13927;SDS011;7036;50.834;4.718;2023-05-07T10:27:57;4.17;;;1.67;;
13927;SDS011;7036;50.834;4.718;2023-05-07T10:30:40;3.47;;;1.73;;
13927;SDS011;7036;50.834;4.718;2023-05-07T10:33:06;3.93;;;1.80;;
13927;SDS011;7036;50.834;4.718;2023-05-07T10:35:38;2.83;;;1.27;;
13927;SDS011;7036;50.834;4.718;2023-05-07T10:38:06;4.43;;;1.53;;
13927;SDS011;7036;50.834;4.718;2023-05-07T10:40:33;2.90;;;2.07;;
13927;SDS011;7036;50.834;4.718;2023-05-07T10:43:01;5.07;;;1.65;;
13927;SDS011;7036;50.834;4.718;2023-05-07T10:45:28;3.30;;;1.73;;
13927;SDS011;7036;50.834;4.718;2023-05-07T10:48:06;2.83;;;1.42;;
13927;SDS011;7036;50.834;4.718;2023-05-07T10:50:39;1.40;;;1.30;;
13927;SDS011;7036;50.834;4.718;2023-05-07T10:55:46;4.63;;;1.80;;
13927;SDS011;7036;50.834;4.718;2023-05-07T10:58:24;2.10;;;1.60;;
13927;SDS011;7036;50.834;4.718;2023-05-07T11:00:58;2.53;;;1.60;;
13927;SDS011;7036;50.834;4.718;2023-05-07T11:03:24;3.67;;;1.80;;
13927;SDS011;7036;50.834;4.718;2023-05-07T11:06:10;5.97;;;1.87;;
13927;SDS011;7036;50.834;4.718;2023-05-07T11:08:54;6.83;;;1.97;;
13927;SDS011;7036;50.834;4.718;2023-05-07T11:14:14;4.47;;;1.90;;
13927;SDS011;7036;50.834;4.718;2023-05-07T11:16:41;7.93;;;1.83;;
13927;SDS011;7036;50.834;4.718;2023-05-07T11:19:08;5.28;;;1.75;;
13927;SDS011;7036;50.834;4.718;2023-05-07T11:21:36;6.88;;;1.83;;
13927;SDS011;7036;50.834;4.718;2023-05-07T11:24:04;3.15;;;1.77;;
13927;SDS011;7036;50.834;4.718;2023-05-07T11:26:41;3.53;;;1.95;;
13927;SDS011;7036;50.834;4.718;2023-05-07T11:29:14;5.63;;;2.00;;
13927;SDS011;7036;50.834;4.718;2023-05-07T11:31:52;7.23;;;2.10;;
13927;SDS011;7036;50.834;4.718;2023-05-07T11:34:25;3.23;;;1.43;;
13927;SDS011;7036;50.834;4.718;2023-05-07T11:36:52;4.90;;;2.00;;
13927;SDS011;7036;50.834;4.718;2023-05-07T11:39:25;5.87;;;2.30;;
13927;SDS011;7036;50.834;4.718;2023-05-07T11:41:54;3.87;;;1.90;;
13927;SDS011;7036;50.834;4.718;2023-05-07T11:44:22;4.88;;;1.63;;
13927;SDS011;7036;50.834;4.718;2023-05-07T11:46:50;5.10;;;1.95;;
13927;SDS011;7036;50.834;4.718;2023-05-07T11:49:17;2.58;;;1.83;;
13927;SDS011;7036;50.834;4.718;2023-05-07T11:51:45;3.42;;;1.70;;
13927;SDS011;7036;50.834;4.718;2023-05-07T11:54:15;3.33;;;1.63;;
13927;SDS011;7036;50.834;4.718;2023-05-07T11:56:40;2.87;;;1.70;;
13927;SDS011;7036;50.834;4.718;2023-05-07T11:59:07;2.75;;;1.45;;
13927;SDS011;7036;50.834;4.718;2023-05-07T12:01:35;4.93;;;1.48;;
13927;SDS011;7036;50.834;4.718;2023-05-07T12:04:04;2.55;;;1.63;;
13927;SDS011;7036;50.834;4.718;2023-05-07T12:06:35;4.07;;;1.77;;
13927;SDS011;7036;50.834;4.718;2023-05-07T12:08:58;3.17;;;1.40;;
13927;SDS011;7036;50.834;4.718;2023-05-07T12:11:25;4.55;;;1.50;;
13927;SDS011;7036;50.834;4.718;2023-05-07T12:13:56;2.70;;;1.83;;
13927;SDS011;7036;50.834;4.718;2023-05-07T12:16:22;3.27;;;1.40;;
13927;SDS011;7036;50.834;4.718;2023-05-07T12:18:50;4.53;;;1.50;;
13927;SDS011;7036;50.834;4.718;2023-05-07T12:21:18;3.30;;;1.27;;
13927;SDS011;7036;50.834;4.718;2023-05-07T12:23:46;4.10;;;1.67;;
13927;SDS011;7036;50.834;4.718;2023-05-07T12:26:14;5.30;;;1.50;;
13927;SDS011;7036;50.834;4.718;2023-05-07T12:28:41;4.78;;;1.80;;
13927;SDS011;7036;50.834;4.718;2023-05-07T12:31:09;3.15;;;1.60;;
13927;SDS011;7036;50.834;4.718;2023-05-07T12:33:36;1.58;;;1.38;;
13927;SDS011;7036;50.834;4.718;2023-05-07T12:36:05;1.80;;;1.33;;
13927;SDS011;7036;50.834;4.718;2023-05-07T12:38:34;3.40;;;1.65;;
13927;SDS011;7036;50.834;4.718;2023-05-07T12:40:58;5.00;;;1.30;;
13927;SDS011;7036;50.834;4.718;2023-05-07T12:43:27;1.42;;;1.33;;
13927;SDS011;7036;50.834;4.718;2023-05-07T12:45:59;1.88;;;1.45;;
13927;SDS011;7036;50.834;4.718;2023-05-07T12:48:21;2.47;;;1.70;;
13927;SDS011;7036;50.834;4.718;2023-05-07T12:50:49;1.90;;;1.58;;
13927;SDS011;7036;50.834;4.718;2023-05-07T12:53:19;2.73;;;1.30;;
13927;SDS011;7036;50.834;4.718;2023-05-07T12:55:45;2.20;;;1.70;;
13927;SDS011;7036;50.834;4.718;2023-05-07T13:00:55;3.33;;;1.40;;
13927;SDS011;7036;50.834;4.718;2023-05-07T13:03:26;3.75;;;1.30;;
13927;SDS011;7036;50.834;4.718;2023-05-07T13:05:55;1.20;;;0.87;;
13927;SDS011;7036;50.834;4.718;2023-05-07T13:08:34;3.13;;;1.40;;
13927;SDS011;7036;50.834;4.718;2023-05-07T13:11:00;3.97;;;1.63;;
13927;SDS011;7036;50.834;4.718;2023-05-07T13:13:27;2.70;;;1.23;;
13927;SDS011;7036;50.834;4.718;2023-05-07T13:15:55;2.03;;;1.45;;
13927;SDS011;7036;50.834;4.718;2023-05-07T13:18:24;1.70;;;1.40;;
13927;SDS011;7036;50.834;4.718;2023-05-07T13:20:50;3.05;;;1.40;;
13927;SDS011;7036;50.834;4.718;2023-05-07T13:23:17;2.63;;;1.10;;
13927;SDS011;7036;50.834;4.718;2023-05-07T13:25:44;2.35;;;1.55;;
13927;SDS011;7036;50.834;4.718;2023-05-07T13:28:12;1.48;;;1.08;;
13927;SDS011;7036;50.834;4.718;2023-05-07T13:30:39;2.85;;;1.30;;
13927;SDS011;7036;50.834;4.718;2023-05-07T13:33:07;1.80;;;1.35;;
13927;SDS011;7036;50.834;4.718;2023-05-07T13:35:34;3.50;;;1.30;;
13927;SDS011;7036;50.834;4.718;2023-05-07T13:38:01;5.15;;;1.42;;
13927;SDS011;7036;50.834;4.718;2023-05-07T13:40:29;9.07;;;1.98;;
13927;SDS011;7036;50.834;4.718;2023-05-07T13:42:57;2.00;;;1.42;;
13927;SDS011;7036;50.834;4.718;2023-05-07T13:45:24;3.78;;;1.25;;
13927;SDS011;7036;50.834;4.718;2023-05-07T13:47:51;1.95;;;1.30;;
13927;SDS011;7036;50.834;4.718;2023-05-07T13:50:18;4.85;;;1.80;;
13927;SDS011;7036;50.834;4.718;2023-05-07T13:52:45;2.47;;;1.35;;
13927;SDS011;7036;50.834;4.718;2023-05-07T13:55:13;2.35;;;1.65;;
13927;SDS011;7036;50.834;4.718;2023-05-07T13:57:41;2.15;;;1.23;;
13927;SDS011;7036;50.834;4.718;2023-05-07T14:00:09;2.47;;;1.67;;
13927;SDS011;7036;50.834;4.718;2023-05-07T14:02:36;3.17;;;1.70;;
13927;SDS011;7036;50.834;4.718;2023-05-07T14:05:03;3.67;;;1.00;;
13927;SDS011;7036;50.834;4.718;2023-05-07T14:07:30;3.55;;;1.50;;
13927;SDS011;7036;50.834;4.718;2023-05-07T14:09:57;1.63;;;1.30;;
13927;SDS011;7036;50.834;4.718;2023-05-07T14:12:25;4.38;;;1.55;;
13927;SDS011;7036;50.834;4.718;2023-05-07T14:14:53;3.30;;;1.95;;
13927;SDS011;7036;50.834;4.718;2023-05-07T14:17:20;3.05;;;1.58;;
13927;SDS011;7036;50.834;4.718;2023-05-07T14:19:48;5.40;;;1.55;;
13927;SDS011;7036;50.834;4.718;2023-05-07T14:22:16;2.85;;;1.30;;
13927;SDS011;7036;50.834;4.718;2023-05-07T14:24:44;3.78;;;1.45;;
13927;SDS011;7036;50.834;4.718;2023-05-07T14:27:13;2.30;;;1.40;;
13927;SDS011;7036;50.834;4.718;2023-05-07T14:29:40;3.27;;;1.27;;
13927;SDS011;7036;50.834;4.718;2023-05-07T14:32:08;1.92;;;1.42;;
13927;SDS011;7036;50.834;4.718;2023-05-07T14:34:35;1.53;;;1.27;;
13927;SDS011;7036;50.834;4.718;2023-05-07T14:37:03;2.60;;;1.50;;
13927;SDS011;7036;50.834;4.718;2023-05-07T14:39:31;4.20;;;1.23;;
13927;SDS011;7036;50.834;4.718;2023-05-07T14:41:59;2.40;;;1.25;;
13927;SDS011;7036;50.834;4.718;2023-05-07T14:44:27;1.92;;;1.33;;
13927;SDS011;7036;50.834;4.718;2023-05-07T14:46:54;2.10;;;1.30;;
13927;SDS011;7036;50.834;4.718;2023-05-07T14:49:22;2.78;;;1.20;;
13927;SDS011;7036;50.834;4.718;2023-05-07T14:51:50;4.50;;;1.10;;
13927;SDS011;7036;50.834;4.718;2023-05-07T14:54:16;1.07;;;0.83;;
13927;SDS011;7036;50.834;4.718;2023-05-07T14:56:44;3.60;;;1.35;;
13927;SDS011;7036;50.834;4.718;2023-05-07T14:59:11;1.30;;;1.20;;
13927;SDS011;7036;50.834;4.718;2023-05-07T15:01:38;1.30;;;1.08;;
13927;SDS011;7036;50.834;4.718;2023-05-07T15:04:06;3.05;;;1.33;;
13927;SDS011;7036;50.834;4.718;2023-05-07T15:06:34;3.08;;;1.30;;
13927;SDS011;7036;50.834;4.718;2023-05-07T15:09:03;2.15;;;0.90;;
13927;SDS011;7036;50.834;4.718;2023-05-07T15:11:29;2.70;;;1.43;;
13927;SDS011;7036;50.834;4.718;2023-05-07T15:13:57;2.10;;;1.10;;